Terminal Aerodrome Forecast
Issued by NWS

Home | Current Version | Previous Version | Text Only | Print | Product List | Glossary On
Versions: 1 2 3 4 5 6 7 8 9 10 11
000
FTUS45 KLKN 182339
TAFELY
TAF
KELY 182339Z 1900/1924 20025G40KT P6SM SCT100 BKN200
     FM190300 31015G25KT P6SM VCSH SCT040 OVC070
      TEMPO 1903/1907 3SM -SHSN OVC025
     FM190700 31012KT P6SM VCSH BKN040=

USA.gov is the U.S. government's official web portal to all federal, state and local government web resources and services.